createdAt,value
2023-03-22T00:00:05.703Z,0.00
2023-03-22T00:00:35.066Z,0.00
2023-03-22T00:00:53.064Z,0.00
2023-03-22T00:01:24.988Z,0.00
2023-03-22T00:01:42.800Z,0.00
2023-03-22T00:02:12.997Z,0.00
2023-03-22T00:02:34.243Z,0.00
2023-03-22T00:03:01.165Z,0.00
2023-03-22T00:03:33.008Z,0.00
2023-03-22T00:04:05.780Z,0.00
2023-03-22T00:04:34.162Z,0.00
2023-03-22T00:04:52.950Z,0.00
2023-03-22T00:05:25.114Z,0.00
2023-03-22T00:05:42.038Z,0.00
2023-03-22T00:06:13.616Z,0.00
2023-03-22T00:06:34.173Z,0.00
2023-03-22T00:07:01.023Z,0.00
2023-03-22T00:07:32.928Z,0.00
2023-03-22T00:08:04.974Z,0.00
2023-03-22T00:08:34.409Z,0.00
2023-03-22T00:08:52.950Z,0.00
2023-03-22T00:09:25.660Z,0.00
2023-03-22T00:09:42.134Z,0.00
2023-03-22T00:10:13.108Z,0.00
2023-03-22T00:10:34.330Z,0.00
2023-03-22T00:11:00.951Z,0.00
2023-03-22T00:11:33.697Z,0.00
2023-03-22T00:12:04.912Z,0.00
2023-03-22T00:12:36.109Z,0.00
2023-03-22T00:13:08.905Z,0.00
2023-03-22T00:13:35.654Z,0.00
2023-03-22T00:13:57.372Z,0.00
2023-03-22T00:14:28.891Z,0.00
2023-03-22T00:15:01.842Z,0.00
2023-03-22T00:15:32.938Z,0.00
2023-03-22T00:16:05.962Z,0.00
2023-03-22T00:16:34.214Z,0.00
2023-03-22T00:16:52.971Z,0.00
2023-03-22T00:17:25.041Z,0.00
2023-03-22T00:17:42.159Z,0.00
2023-03-22T00:18:13.599Z,0.00
2023-03-22T00:18:34.329Z,0.00
2023-03-22T00:19:01.060Z,0.00
2023-03-22T00:19:33.034Z,0.00
2023-03-22T00:20:05.080Z,0.00
2023-03-22T00:20:34.111Z,0.00
2023-03-22T00:20:53.058Z,0.00
2023-03-22T00:21:25.758Z,0.00
2023-03-22T00:21:56.907Z,0.00
2023-03-22T00:22:29.596Z,0.00
2023-03-22T00:23:01.087Z,0.00
2023-03-22T00:23:33.634Z,0.00
2023-03-22T00:24:04.897Z,0.00
2023-03-22T00:24:35.022Z,0.00
2023-03-22T00:24:52.984Z,0.00
2023-03-22T00:25:25.215Z,0.00
2023-03-22T00:25:42.780Z,0.00
2023-03-22T00:26:13.010Z,0.00
2023-03-22T00:26:34.272Z,0.00
2023-03-22T00:27:00.982Z,0.00
2023-03-22T00:27:32.954Z,0.00
2023-03-22T00:28:05.854Z,0.00
2023-03-22T00:28:34.168Z,0.00
2023-03-22T00:28:52.936Z,0.00
2023-03-22T00:29:25.045Z,0.00
2023-03-22T00:29:42.102Z,0.00
2023-03-22T00:30:13.936Z,0.00
2023-03-22T00:30:34.288Z,0.00
2023-03-22T00:31:01.111Z,0.00
2023-03-22T00:31:33.031Z,0.00
2023-03-22T00:32:04.846Z,0.00
2023-03-22T00:32:34.153Z,0.00
2023-03-22T00:32:52.957Z,0.00
2023-03-22T00:33:25.691Z,0.00
2023-03-22T00:33:56.895Z,0.00
2023-03-22T00:34:29.536Z,0.00
2023-03-22T00:35:01.062Z,0.00
2023-03-22T00:35:33.739Z,0.00
2023-03-22T00:36:04.921Z,0.00
2023-03-22T00:36:35.608Z,0.00
2023-03-22T00:36:52.960Z,0.00
2023-03-22T00:37:24.888Z,0.00
2023-03-22T00:37:42.891Z,0.00
2023-03-22T00:38:12.964Z,0.00
2023-03-22T00:38:42.075Z,0.00
2023-03-22T00:39:01.854Z,0.00
2023-03-22T00:39:32.928Z,0.00
2023-03-22T00:40:05.076Z,0.00
2023-03-22T00:40:34.135Z,0.00
2023-03-22T00:40:53.075Z,0.00
2023-03-22T00:41:25.788Z,0.00
2023-03-22T00:41:57.018Z,0.00
2023-03-22T00:42:29.586Z,0.00
2023-03-22T00:43:00.934Z,0.00
2023-03-22T00:43:33.661Z,0.00
2023-03-22T00:44:05.143Z,0.00
2023-03-22T00:44:34.827Z,0.00
2023-03-22T00:44:53.043Z,0.00
2023-03-22T00:45:25.321Z,0.00
2023-03-22T00:45:43.082Z,0.00
2023-03-22T00:46:13.055Z,0.00
2023-03-22T00:46:34.270Z,0.00
2023-03-22T00:47:00.942Z,0.00
2023-03-22T00:47:32.896Z,0.00
2023-03-22T00:48:05.798Z,0.00
2023-03-22T00:48:34.308Z,0.00
2023-03-22T00:48:52.927Z,0.00
2023-03-22T00:49:24.987Z,0.00
2023-03-22T00:49:42.104Z,0.00
2023-03-22T00:50:13.797Z,0.00
2023-03-22T00:50:34.245Z,0.00
2023-03-22T00:51:00.962Z,0.00
2023-03-22T00:51:32.883Z,0.00
2023-03-22T00:52:04.829Z,0.00
2023-03-22T00:52:34.184Z,0.00
2023-03-22T00:52:52.962Z,0.00
2023-03-22T00:53:25.651Z,0.00
2023-03-22T00:53:43.549Z,0.00
2023-03-22T00:54:12.946Z,0.00
2023-03-22T00:54:34.145Z,0.00
2023-03-22T00:55:02.126Z,0.00
2023-03-22T00:55:33.786Z,0.00
2023-03-22T00:56:04.893Z,0.00
2023-03-22T00:56:34.799Z,0.00
2023-03-22T00:56:52.962Z,0.00
2023-03-22T00:57:25.015Z,0.00
2023-03-22T00:57:42.793Z,0.00
2023-03-22T00:58:12.921Z,0.00
2023-03-22T00:58:34.306Z,0.00
2023-03-22T00:59:00.967Z,0.00
2023-03-22T00:59:32.944Z,0.00
2023-03-22T01:00:06.319Z,0.00
2023-03-22T01:00:35.793Z,0.00
2023-03-22T01:00:53.316Z,0.00
2023-03-22T01:01:25.081Z,0.00
2023-03-22T01:01:42.010Z,0.00
2023-03-22T01:02:13.666Z,0.00
2023-03-22T01:02:34.164Z,0.00
2023-03-22T01:03:01.046Z,0.00
2023-03-22T01:03:33.499Z,0.00
2023-03-22T01:04:04.906Z,0.00
2023-03-22T01:04:34.329Z,0.00
2023-03-22T01:04:52.888Z,0.00
2023-03-22T01:05:25.989Z,0.00
2023-03-22T01:05:42.244Z,0.00
2023-03-22T01:06:12.925Z,0.00
2023-03-22T01:06:34.185Z,0.00
2023-03-22T01:07:00.991Z,0.00
2023-03-22T01:07:33.615Z,0.00
2023-03-22T01:08:04.909Z,0.00
2023-03-22T01:08:35.462Z,0.00
2023-03-22T01:08:52.986Z,0.00
2023-03-22T01:09:24.924Z,0.00
2023-03-22T01:09:42.860Z,0.00
2023-03-22T01:10:13.086Z,0.00
2023-03-22T01:10:34.164Z,0.00
2023-03-22T01:11:00.943Z,0.00
2023-03-22T01:11:32.901Z,0.00
2023-03-22T01:12:05.825Z,0.00
2023-03-22T01:12:34.379Z,0.00
2023-03-22T01:12:52.958Z,0.00
2023-03-22T01:13:24.945Z,0.00
2023-03-22T01:13:42.080Z,0.00
2023-03-22T01:14:13.590Z,0.00
2023-03-22T01:14:34.151Z,0.00
2023-03-22T01:15:01.218Z,0.00
2023-03-22T01:15:32.878Z,0.00
2023-03-22T01:16:05.101Z,0.00
2023-03-22T01:16:34.245Z,0.00
2023-03-22T01:16:53.121Z,0.00
2023-03-22T01:17:25.752Z,0.00
2023-03-22T01:17:42.126Z,0.00
2023-03-22T01:18:12.930Z,0.00
2023-03-22T01:18:34.245Z,0.00
2023-03-22T01:19:00.948Z,0.00
2023-03-22T01:19:33.674Z,0.00
2023-03-22T01:20:05.187Z,0.00
2023-03-22T01:20:34.911Z,0.00
2023-03-22T01:20:53.101Z,0.00
2023-03-22T01:21:25.050Z,0.00
2023-03-22T01:21:42.738Z,0.00
2023-03-22T01:22:13.015Z,0.00
2023-03-22T01:22:34.224Z,0.00
2023-03-22T01:23:00.912Z,0.00
2023-03-22T01:23:32.903Z,0.00
2023-03-22T01:24:05.894Z,0.00
2023-03-22T01:24:34.174Z,0.00
2023-03-22T01:24:52.913Z,0.00
2023-03-22T01:25:25.136Z,0.00
2023-03-22T01:25:42.177Z,0.00
2023-03-22T01:26:13.574Z,0.00
2023-03-22T01:26:34.466Z,0.00
2023-03-22T01:27:00.956Z,0.00
2023-03-22T01:27:32.900Z,0.00
2023-03-22T01:28:04.921Z,0.00
2023-03-22T01:28:34.154Z,0.00
2023-03-22T01:28:53.018Z,0.00
2023-03-22T01:29:25.774Z,0.00
2023-03-22T01:29:42.196Z,0.00
2023-03-22T01:30:13.211Z,0.00
2023-03-22T01:30:34.471Z,0.00
2023-03-22T01:31:00.914Z,0.00
2023-03-22T01:31:33.613Z,0.00
2023-03-22T01:32:04.911Z,0.00
2023-03-22T01:32:35.273Z,0.00
2023-03-22T01:32:52.945Z,0.00
2023-03-22T01:33:24.958Z,0.00
2023-03-22T01:33:42.757Z,0.00
2023-03-22T01:34:13.005Z,0.00
2023-03-22T01:34:34.207Z,0.00
2023-03-22T01:35:01.652Z,0.00
2023-03-22T01:35:32.919Z,0.00
2023-03-22T01:36:05.838Z,0.00
2023-03-22T01:36:34.743Z,0.00
2023-03-22T01:36:52.999Z,0.00
2023-03-22T01:37:24.891Z,0.00
2023-03-22T01:37:42.120Z,0.00
2023-03-22T01:38:12.876Z,0.00
2023-03-22T01:38:34.444Z,0.00
2023-03-22T01:39:00.911Z,0.00
2023-03-22T01:39:32.962Z,0.00
2023-03-22T01:40:05.075Z,0.00
2023-03-22T01:40:34.142Z,0.00
2023-03-22T01:40:53.287Z,0.00
2023-03-22T01:41:25.751Z,0.00
2023-03-22T01:41:42.189Z,0.00
2023-03-22T01:42:12.899Z,0.00
2023-03-22T01:42:34.134Z,0.00
2023-03-22T01:43:01.077Z,0.00
2023-03-22T01:43:33.569Z,0.00
2023-03-22T01:44:05.054Z,0.00
2023-03-22T01:44:36.236Z,0.00
2023-03-22T01:45:09.130Z,0.00
2023-03-22T01:45:34.597Z,0.00
2023-03-22T01:45:57.161Z,0.00
2023-03-22T01:46:28.970Z,0.00
2023-03-22T01:47:01.548Z,0.00
2023-03-22T01:47:32.905Z,0.00
2023-03-22T01:48:05.835Z,0.00
2023-03-22T01:48:34.220Z,0.00
2023-03-22T01:48:52.969Z,0.00
2023-03-22T01:49:25.082Z,0.00
2023-03-22T01:49:42.025Z,0.00
2023-03-22T01:50:14.723Z,0.00
2023-03-22T01:50:34.623Z,0.00
2023-03-22T01:51:00.932Z,0.00
2023-03-22T01:51:32.999Z,0.00
2023-03-22T01:52:04.877Z,0.00
2023-03-22T01:52:34.197Z,0.00
2023-03-22T01:52:52.939Z,0.00
2023-03-22T01:53:25.730Z,0.00
2023-03-22T01:53:42.228Z,0.00
2023-03-22T01:54:12.953Z,0.00
2023-03-22T01:54:34.162Z,0.00
2023-03-22T01:55:01.126Z,0.00
2023-03-22T01:55:33.690Z,0.00
2023-03-22T01:56:04.877Z,0.00
2023-03-22T01:56:35.274Z,0.00
2023-03-22T01:56:52.946Z,0.00
2023-03-22T01:57:25.030Z,0.00
2023-03-22T01:57:42.796Z,0.00
2023-03-22T01:58:12.933Z,0.00
2023-03-22T01:58:34.186Z,0.00
2023-03-22T01:59:00.971Z,0.00
2023-03-22T01:59:32.938Z,0.00
2023-03-22T02:00:06.455Z,0.00
2023-03-22T02:00:34.230Z,0.00
2023-03-22T02:00:53.013Z,0.00
2023-03-22T02:01:24.994Z,0.00
2023-03-22T02:01:42.094Z,0.00
2023-03-22T02:02:13.788Z,0.00
2023-03-22T02:02:34.190Z,0.00
2023-03-22T02:03:17.782Z,0.00
2023-03-22T02:03:34.886Z,0.00
2023-03-22T02:04:04.865Z,0.00
2023-03-22T02:04:34.277Z,0.00
2023-03-22T02:04:52.860Z,0.00
2023-03-22T02:05:26.151Z,0.00
2023-03-22T02:05:42.166Z,0.00
2023-03-22T02:06:12.906Z,0.00
2023-03-22T02:06:34.618Z,0.00
2023-03-22T02:07:00.907Z,0.00
2023-03-22T02:07:33.752Z,0.00
2023-03-22T02:08:04.901Z,0.00
2023-03-22T02:08:35.196Z,0.00
2023-03-22T02:08:52.868Z,0.00
2023-03-22T02:09:24.998Z,0.00
2023-03-22T02:09:42.836Z,0.00
2023-03-22T02:10:13.057Z,0.00
2023-03-22T02:10:34.254Z,0.00
2023-03-22T02:11:00.989Z,0.00
2023-03-22T02:11:32.869Z,0.00
2023-03-22T02:12:05.790Z,0.00
2023-03-22T02:12:34.260Z,0.00
2023-03-22T02:12:52.914Z,0.00
2023-03-22T02:13:24.913Z,0.00
2023-03-22T02:13:41.968Z,0.00
2023-03-22T02:14:13.530Z,0.00
2023-03-22T02:14:34.230Z,0.00
2023-03-22T02:15:01.357Z,0.00
2023-03-22T02:15:32.933Z,0.00
2023-03-22T02:16:04.958Z,0.00
2023-03-22T02:16:34.244Z,0.00
2023-03-22T02:16:52.955Z,0.00
2023-03-22T02:17:25.772Z,0.00
2023-03-22T02:17:42.071Z,0.00
2023-03-22T02:18:12.952Z,0.00
2023-03-22T02:18:34.170Z,0.00
2023-03-22T02:19:00.906Z,0.00
2023-03-22T02:19:34.023Z,0.00
2023-03-22T02:20:05.154Z,0.00
2023-03-22T02:20:35.238Z,0.00
2023-03-22T02:20:53.123Z,0.00
2023-03-22T02:21:25.032Z,0.00
2023-03-22T02:21:42.756Z,0.00
2023-03-22T02:22:13.086Z,0.00
2023-03-22T02:22:34.243Z,0.00
2023-03-22T02:23:00.983Z,0.00
2023-03-22T02:23:32.842Z,0.00
2023-03-22T02:24:05.720Z,0.00
2023-03-22T02:24:34.234Z,0.00
2023-03-22T02:24:53.009Z,0.00
2023-03-22T02:25:25.108Z,0.00
2023-03-22T02:25:42.024Z,0.00
2023-03-22T02:26:13.721Z,0.00
2023-03-22T02:26:34.236Z,0.00
2023-03-22T02:27:00.922Z,0.00
2023-03-22T02:27:32.871Z,0.00
2023-03-22T02:28:04.937Z,0.00
2023-03-22T02:28:34.255Z,0.00
2023-03-22T02:28:52.979Z,0.00
2023-03-22T02:29:25.561Z,0.00
2023-03-22T02:29:42.104Z,0.00
2023-03-22T02:30:13.168Z,0.00
2023-03-22T02:30:34.222Z,0.00
2023-03-22T02:31:01.101Z,0.00
2023-03-22T02:31:33.728Z,0.00
2023-03-22T02:32:04.966Z,0.00
2023-03-22T02:32:35.027Z,0.00
2023-03-22T02:32:52.934Z,0.00
2023-03-22T02:33:24.949Z,0.00
2023-03-22T02:33:42.726Z,0.00
2023-03-22T02:34:12.949Z,0.00
2023-03-22T02:34:34.253Z,0.00
2023-03-22T02:35:01.099Z,0.00
2023-03-22T02:35:32.999Z,0.00
2023-03-22T02:36:21.640Z,0.00
2023-03-22T02:36:52.951Z,0.00
2023-03-22T02:37:25.919Z,0.00
2023-03-22T02:37:42.209Z,0.00
2023-03-22T02:38:12.929Z,0.00
2023-03-22T02:38:34.177Z,0.00
2023-03-22T02:39:00.916Z,0.00
2023-03-22T02:39:32.892Z,0.00
2023-03-22T02:40:05.271Z,0.00
2023-03-22T02:40:34.231Z,0.00
2023-03-22T02:40:53.137Z,0.00
2023-03-22T02:41:25.734Z,0.00
2023-03-22T02:41:42.207Z,0.00
2023-03-22T02:42:12.920Z,0.00
2023-03-22T02:42:34.863Z,0.00
2023-03-22T02:43:00.937Z,0.00
2023-03-22T02:43:33.653Z,0.00
2023-03-22T02:44:05.092Z,0.00
2023-03-22T02:44:34.994Z,0.00
2023-03-22T02:44:52.947Z,0.00
2023-03-22T02:45:25.216Z,0.00
2023-03-22T02:45:42.819Z,0.00
2023-03-22T02:46:12.960Z,0.00
2023-03-22T02:46:34.234Z,0.00
2023-03-22T02:47:00.962Z,0.00
2023-03-22T02:47:32.904Z,0.00
2023-03-22T02:48:05.713Z,0.00
2023-03-22T02:48:34.200Z,0.00
2023-03-22T02:48:52.894Z,0.00
2023-03-22T02:49:24.881Z,0.00
2023-03-22T02:49:42.019Z,0.00
2023-03-22T02:50:14.145Z,0.00
2023-03-22T02:50:34.174Z,0.00
2023-03-22T02:51:00.851Z,0.00
2023-03-22T02:51:32.877Z,0.00
2023-03-22T02:52:04.926Z,0.00
2023-03-22T02:52:34.166Z,0.00
2023-03-22T02:52:52.836Z,0.00
2023-03-22T02:53:25.637Z,0.00
2023-03-22T02:53:42.125Z,0.00
2023-03-22T02:54:12.870Z,0.00
2023-03-22T02:54:34.127Z,0.00
2023-03-22T02:55:01.170Z,0.00
2023-03-22T02:55:33.726Z,0.00
2023-03-22T02:56:04.886Z,0.00
2023-03-22T02:56:34.986Z,0.00
2023-03-22T02:56:52.851Z,0.00
2023-03-22T02:57:24.865Z,0.00
2023-03-22T02:57:42.712Z,0.00
2023-03-22T02:58:12.902Z,0.00
2023-03-22T02:58:34.152Z,0.00
2023-03-22T02:59:00.891Z,0.00
2023-03-22T02:59:32.890Z,0.00
2023-03-22T03:00:06.504Z,0.00
2023-03-22T03:00:34.212Z,0.00
2023-03-22T03:00:53.179Z,0.00
2023-03-22T03:01:25.039Z,0.00
2023-03-22T03:01:42.087Z,0.00
2023-03-22T03:02:13.682Z,0.00
2023-03-22T03:02:34.162Z,0.00
2023-03-22T03:03:00.898Z,0.00
2023-03-22T03:03:32.893Z,0.00
2023-03-22T03:04:04.911Z,0.00
2023-03-22T03:04:34.140Z,0.00
2023-03-22T03:04:53.098Z,0.00
2023-03-22T03:05:25.875Z,0.00
2023-03-22T03:05:42.201Z,0.00
2023-03-22T03:06:12.949Z,0.00
2023-03-22T03:06:34.225Z,0.00
2023-03-22T03:07:00.918Z,0.00
2023-03-22T03:07:33.693Z,0.00
2023-03-22T03:08:04.889Z,0.00
2023-03-22T03:08:34.935Z,0.00
2023-03-22T03:08:52.885Z,0.00
2023-03-22T03:09:25.024Z,0.00
2023-03-22T03:09:42.834Z,0.00
2023-03-22T03:10:13.048Z,0.00
2023-03-22T03:10:34.577Z,0.00
2023-03-22T03:11:00.946Z,0.00
2023-03-22T03:11:32.931Z,0.00
2023-03-22T03:12:05.621Z,0.00
2023-03-22T03:12:34.294Z,0.00
2023-03-22T03:12:52.822Z,0.00
2023-03-22T03:13:24.924Z,0.00
2023-03-22T03:13:41.979Z,0.00
2023-03-22T03:14:13.508Z,0.00
2023-03-22T03:14:34.162Z,0.00
2023-03-22T03:15:01.120Z,0.00
2023-03-22T03:15:32.872Z,0.00
2023-03-22T03:16:04.999Z,0.00
2023-03-22T03:16:34.313Z,0.00
2023-03-22T03:16:52.896Z,0.00
2023-03-22T03:17:25.789Z,0.00
2023-03-22T03:17:42.046Z,0.00
2023-03-22T03:18:12.812Z,0.00
2023-03-22T03:18:34.720Z,0.00
2023-03-22T03:19:00.941Z,0.00
2023-03-22T03:19:33.705Z,0.00
2023-03-22T03:20:05.189Z,0.00
2023-03-22T03:20:35.004Z,0.00
2023-03-22T03:20:53.020Z,0.00
2023-03-22T03:21:24.887Z,0.00
2023-03-22T03:21:42.705Z,0.00
2023-03-22T03:22:13.027Z,0.00
2023-03-22T03:22:35.600Z,0.00
2023-03-22T03:23:00.893Z,0.00
2023-03-22T03:23:32.826Z,0.00
2023-03-22T03:24:05.802Z,0.00
2023-03-22T03:24:34.134Z,0.00
2023-03-22T03:24:52.917Z,0.00
2023-03-22T03:25:25.129Z,0.00
2023-03-22T03:25:42.000Z,0.00
2023-03-22T03:26:13.679Z,0.00
2023-03-22T03:26:34.246Z,0.00
2023-03-22T03:27:00.861Z,0.00
2023-03-22T03:27:32.866Z,0.00
2023-03-22T03:28:04.901Z,0.00
2023-03-22T03:28:34.182Z,0.00
2023-03-22T03:28:52.976Z,0.00
2023-03-22T03:29:25.803Z,0.00
2023-03-22T03:29:42.136Z,0.00
2023-03-22T03:30:13.270Z,0.00
2023-03-22T03:30:34.146Z,0.00
2023-03-22T03:31:00.944Z,0.00
2023-03-22T03:31:33.684Z,0.00
2023-03-22T03:32:04.844Z,0.00
2023-03-22T03:32:34.883Z,0.00
2023-03-22T03:32:52.933Z,0.00
2023-03-22T03:33:24.909Z,0.00
2023-03-22T03:33:42.818Z,0.00
2023-03-22T03:34:13.186Z,0.00
2023-03-22T03:34:34.117Z,0.00
2023-03-22T03:35:01.321Z,0.00
2023-03-22T03:35:32.825Z,0.00
2023-03-22T03:36:05.669Z,0.00
2023-03-22T03:36:34.462Z,0.00
2023-03-22T03:36:52.874Z,0.00
2023-03-22T03:37:24.893Z,0.00
2023-03-22T03:37:41.930Z,0.00
2023-03-22T03:38:13.231Z,0.00
2023-03-22T03:38:34.115Z,0.00
2023-03-22T03:39:00.892Z,0.00
2023-03-22T03:39:33.026Z,0.00
2023-03-22T03:40:05.117Z,0.00
2023-03-22T03:40:34.124Z,0.00
2023-03-22T03:40:53.050Z,0.00
2023-03-22T03:41:25.651Z,0.00
2023-03-22T03:41:42.075Z,0.00
2023-03-22T03:42:12.882Z,0.00
2023-03-22T03:42:34.161Z,0.00
2023-03-22T03:43:00.912Z,0.00
2023-03-22T03:43:33.697Z,0.00
2023-03-22T03:44:05.223Z,0.00
2023-03-22T03:44:34.918Z,0.00
2023-03-22T03:44:52.893Z,0.00
2023-03-22T03:45:25.299Z,0.00
2023-03-22T03:45:42.845Z,0.00
2023-03-22T03:46:13.009Z,0.00
2023-03-22T03:46:34.142Z,0.00
2023-03-22T03:47:00.909Z,0.00
2023-03-22T03:47:32.877Z,0.00
2023-03-22T03:48:05.682Z,0.00
2023-03-22T03:48:34.212Z,0.00
2023-03-22T03:48:52.903Z,0.00
2023-03-22T03:49:24.925Z,0.00
2023-03-22T03:49:42.039Z,0.00
2023-03-22T03:50:29.789Z,0.00
2023-03-22T03:51:00.914Z,0.00
2023-03-22T03:51:33.611Z,0.00
2023-03-22T03:52:05.027Z,0.00
2023-03-22T03:52:34.952Z,0.00
2023-03-22T03:52:52.931Z,0.00
2023-03-22T03:53:24.853Z,0.00
2023-03-22T03:53:42.856Z,0.00
2023-03-22T03:54:12.978Z,0.00
2023-03-22T03:54:34.193Z,0.00
2023-03-22T03:55:01.006Z,0.00
2023-03-22T03:55:32.829Z,0.00
2023-03-22T03:56:05.776Z,0.00
2023-03-22T03:56:34.215Z,0.00
2023-03-22T03:56:52.837Z,0.00
2023-03-22T03:57:25.001Z,0.00
2023-03-22T03:57:41.987Z,0.00
2023-03-22T03:58:13.710Z,0.00
2023-03-22T03:58:34.471Z,0.00
2023-03-22T03:59:00.910Z,0.00
2023-03-22T03:59:32.882Z,0.00
2023-03-22T04:00:05.419Z,0.00
2023-03-22T04:00:34.138Z,0.00
2023-03-22T04:00:53.029Z,0.00
2023-03-22T04:01:25.665Z,0.00
2023-03-22T04:01:42.054Z,0.00
2023-03-22T04:02:12.971Z,0.00
2023-03-22T04:02:34.184Z,0.00
2023-03-22T04:03:00.849Z,0.00
2023-03-22T04:03:33.652Z,0.00
2023-03-22T04:04:04.870Z,0.00
2023-03-22T04:04:34.955Z,0.00
2023-03-22T04:04:52.962Z,0.00
2023-03-22T04:05:25.297Z,0.00
2023-03-22T04:05:57.593Z,0.00
2023-03-22T04:06:28.873Z,0.00
2023-03-22T04:07:01.688Z,0.00
2023-03-22T04:07:32.846Z,0.00
2023-03-22T04:08:05.667Z,0.00
2023-03-22T04:08:34.209Z,0.00
2023-03-22T04:08:52.870Z,0.00
2023-03-22T04:09:24.857Z,0.00
2023-03-22T04:09:41.957Z,0.00
2023-03-22T04:10:13.871Z,0.00
2023-03-22T04:10:34.299Z,0.00
2023-03-22T04:11:00.867Z,0.00
2023-03-22T04:11:32.836Z,0.00
2023-03-22T04:12:04.936Z,0.00
2023-03-22T04:12:34.104Z,0.00
2023-03-22T04:12:52.796Z,0.00
2023-03-22T04:13:25.744Z,0.00
2023-03-22T04:13:42.143Z,0.00
2023-03-22T04:14:12.850Z,0.00
2023-03-22T04:14:34.190Z,0.00
2023-03-22T04:15:01.156Z,0.00
2023-03-22T04:15:33.680Z,0.00
2023-03-22T04:16:04.942Z,0.00
2023-03-22T04:16:34.985Z,0.00
2023-03-22T04:16:52.840Z,0.00
2023-03-22T04:17:24.843Z,0.00
2023-03-22T04:17:42.743Z,0.00
2023-03-22T04:18:12.872Z,0.00
2023-03-22T04:18:34.260Z,0.00
2023-03-22T04:19:00.915Z,0.00
2023-03-22T04:19:32.871Z,0.00
2023-03-22T04:20:06.096Z,0.00
2023-03-22T04:20:34.141Z,0.00
2023-03-22T04:20:53.035Z,0.00
2023-03-22T04:21:24.878Z,0.00
2023-03-22T04:21:42.010Z,0.00
2023-03-22T04:22:13.703Z,0.00
2023-03-22T04:22:34.258Z,0.00
2023-03-22T04:23:00.932Z,0.00
2023-03-22T04:23:32.808Z,0.00
2023-03-22T04:24:04.987Z,0.00
2023-03-22T04:24:34.866Z,0.00
2023-03-22T04:24:52.882Z,0.00
2023-03-22T04:25:25.338Z,0.00
2023-03-22T04:25:42.632Z,0.00
2023-03-22T04:26:12.875Z,0.00
2023-03-22T04:26:34.148Z,0.00
2023-03-22T04:27:00.864Z,0.00
2023-03-22T04:27:32.812Z,0.00
2023-03-22T04:28:05.729Z,0.00
2023-03-22T04:28:34.153Z,0.00
2023-03-22T04:28:52.939Z,0.00
2023-03-22T04:29:24.921Z,0.00
2023-03-22T04:29:41.950Z,0.00
2023-03-22T04:30:13.848Z,0.00
2023-03-22T04:30:34.170Z,0.00
2023-03-22T04:31:00.924Z,0.00
2023-03-22T04:31:33.151Z,0.00
2023-03-22T04:32:04.899Z,0.00
2023-03-22T04:32:34.147Z,0.00
2023-03-22T04:32:52.831Z,0.00
2023-03-22T04:33:25.874Z,0.00
2023-03-22T04:33:42.123Z,0.00
2023-03-22T04:34:13.040Z,0.00
2023-03-22T04:34:34.118Z,0.00
2023-03-22T04:35:01.043Z,0.00
2023-03-22T04:35:33.959Z,0.00
2023-03-22T04:36:04.936Z,0.00
2023-03-22T04:36:34.848Z,0.00
2023-03-22T04:36:52.853Z,0.00
2023-03-22T04:37:25.190Z,0.00
2023-03-22T04:37:42.664Z,0.00
2023-03-22T04:38:12.881Z,0.00
2023-03-22T04:38:34.129Z,0.00
2023-03-22T04:39:00.860Z,0.00
2023-03-22T04:39:32.852Z,0.00
2023-03-22T04:40:05.114Z,0.00
2023-03-22T04:40:34.115Z,0.00
2023-03-22T04:40:53.025Z,0.00
2023-03-22T04:41:25.612Z,0.00
2023-03-22T04:41:42.127Z,0.00
2023-03-22T04:42:13.025Z,0.00
2023-03-22T04:42:34.170Z,0.00
2023-03-22T04:43:00.870Z,0.00
2023-03-22T04:43:33.547Z,0.00
2023-03-22T04:44:05.070Z,0.00
2023-03-22T04:44:36.235Z,0.00
2023-03-22T04:44:52.944Z,0.00
2023-03-22T04:45:25.265Z,0.00
2023-03-22T04:45:42.831Z,0.00
2023-03-22T04:46:13.062Z,0.00
2023-03-22T04:46:34.167Z,0.00
2023-03-22T04:47:00.860Z,0.00
2023-03-22T04:47:32.917Z,0.00
2023-03-22T04:48:05.724Z,0.00
2023-03-22T04:48:34.808Z,0.00
2023-03-22T04:48:52.905Z,0.00
2023-03-22T04:49:24.884Z,0.00
2023-03-22T04:49:41.955Z,0.00
2023-03-22T04:50:13.799Z,0.00
2023-03-22T04:50:34.591Z,0.00
2023-03-22T04:51:00.844Z,0.00
2023-03-22T04:51:32.829Z,0.00
2023-03-22T04:52:04.917Z,0.00
2023-03-22T04:52:34.666Z,0.00
2023-03-22T04:52:52.832Z,0.00
2023-03-22T04:53:25.737Z,0.00
2023-03-22T04:53:42.148Z,0.00
2023-03-22T04:54:12.865Z,0.00
2023-03-22T04:54:34.158Z,0.00
2023-03-22T04:55:01.047Z,0.00
2023-03-22T04:55:33.665Z,0.00
2023-03-22T04:56:04.923Z,0.00
2023-03-22T04:56:34.877Z,0.00
2023-03-22T04:56:52.816Z,0.00
2023-03-22T04:57:24.940Z,0.00
2023-03-22T04:57:42.844Z,0.00
2023-03-22T04:58:13.053Z,0.00
2023-03-22T04:58:34.401Z,0.00
2023-03-22T04:59:00.840Z,0.00
2023-03-22T04:59:32.804Z,0.00
2023-03-22T05:00:06.168Z,0.00
2023-03-22T05:00:34.208Z,0.00
2023-03-22T05:00:53.031Z,0.00
2023-03-22T05:01:25.114Z,0.00
2023-03-22T05:01:42.090Z,0.00
2023-03-22T05:02:13.698Z,0.00
2023-03-22T05:02:34.643Z,0.00
2023-03-22T05:03:00.925Z,0.00
2023-03-22T05:03:32.825Z,0.00
2023-03-22T05:04:04.895Z,0.00
2023-03-22T05:04:34.306Z,0.00
2023-03-22T05:04:52.845Z,0.00
2023-03-22T05:05:25.955Z,0.00
2023-03-22T05:05:56.926Z,0.00
2023-03-22T05:06:29.538Z,0.00
2023-03-22T05:07:00.935Z,0.00
2023-03-22T05:07:33.585Z,0.00
2023-03-22T05:08:04.873Z,0.00
2023-03-22T05:08:34.922Z,0.00
2023-03-22T05:08:52.981Z,0.00
2023-03-22T05:09:24.885Z,0.00
2023-03-22T05:09:42.751Z,0.00
2023-03-22T05:10:12.997Z,0.00
2023-03-22T05:10:34.140Z,0.00
2023-03-22T05:11:00.826Z,0.00
2023-03-22T05:11:32.851Z,0.00
2023-03-22T05:12:05.640Z,0.00
2023-03-22T05:12:34.111Z,0.00
2023-03-22T05:12:52.792Z,0.00
2023-03-22T05:13:24.833Z,0.00
2023-03-22T05:13:41.928Z,0.00
2023-03-22T05:14:13.613Z,0.00
2023-03-22T05:14:34.348Z,0.00
2023-03-22T05:15:01.052Z,0.00
2023-03-22T05:15:32.825Z,0.00
2023-03-22T05:16:04.930Z,0.00
2023-03-22T05:16:34.121Z,0.00
2023-03-22T05:16:52.832Z,0.00
2023-03-22T05:17:25.929Z,0.00
2023-03-22T05:17:42.183Z,0.00
2023-03-22T05:18:12.880Z,0.00
2023-03-22T05:18:34.245Z,0.00
2023-03-22T05:19:00.788Z,0.00
2023-03-22T05:19:33.597Z,0.00
2023-03-22T05:20:05.009Z,0.00
2023-03-22T05:20:35.163Z,0.00
2023-03-22T05:20:52.987Z,0.00
2023-03-22T05:21:24.840Z,0.00
2023-03-22T05:21:42.615Z,0.00
2023-03-22T05:22:12.967Z,0.00
2023-03-22T05:22:34.128Z,0.00
2023-03-22T05:23:00.844Z,0.00
2023-03-22T05:23:32.852Z,0.00
2023-03-22T05:24:05.562Z,0.00
2023-03-22T05:24:34.136Z,0.00
2023-03-22T05:24:52.921Z,0.00
2023-03-22T05:25:24.996Z,0.00
2023-03-22T05:25:41.946Z,0.00
2023-03-22T05:26:13.657Z,0.00
2023-03-22T05:26:34.165Z,0.00
2023-03-22T05:27:00.869Z,0.00
2023-03-22T05:27:32.796Z,0.00
2023-03-22T05:28:04.950Z,0.00
2023-03-22T05:28:34.106Z,0.00
2023-03-22T05:28:52.842Z,0.00
2023-03-22T05:29:25.790Z,0.00
2023-03-22T05:29:42.093Z,0.00
2023-03-22T05:30:13.091Z,0.00
2023-03-22T05:30:34.106Z,0.00
2023-03-22T05:31:00.896Z,0.00
2023-03-22T05:31:33.613Z,0.00
2023-03-22T05:32:04.918Z,0.00
2023-03-22T05:32:34.901Z,0.00
2023-03-22T05:32:52.846Z,0.00
2023-03-22T05:33:25.156Z,0.00
2023-03-22T05:33:42.846Z,0.00
2023-03-22T05:34:12.834Z,0.00
2023-03-22T05:34:34.147Z,0.36
2023-03-22T05:35:01.272Z,0.00
2023-03-22T05:35:32.848Z,0.00
2023-03-22T05:36:05.686Z,0.00
2023-03-22T05:36:34.391Z,0.36
2023-03-22T05:36:52.809Z,0.36
2023-03-22T05:37:25.040Z,1.22
2023-03-22T05:37:41.980Z,0.00
2023-03-22T05:38:12.842Z,0.36
2023-03-22T05:38:34.391Z,0.85
2023-03-22T05:39:01.065Z,1.71
2023-03-22T05:39:32.928Z,1.22
2023-03-22T05:40:05.383Z,1.71
2023-03-22T05:40:34.395Z,2.08
2023-03-22T05:40:53.329Z,1.71
2023-03-22T05:41:26.070Z,2.08
2023-03-22T05:41:42.320Z,2.08
2023-03-22T05:42:12.969Z,2.57
2023-03-22T05:42:34.305Z,2.94
2023-03-22T05:43:00.991Z,2.57
2023-03-22T05:43:33.627Z,3.43
2023-03-22T05:44:05.273Z,3.79
2023-03-22T05:44:35.115Z,3.43
2023-03-22T05:44:53.032Z,3.79
2023-03-22T05:45:25.240Z,3.79
2023-03-22T05:45:43.065Z,4.77
2023-03-22T05:46:13.114Z,4.77
2023-03-22T05:46:34.341Z,5.14
2023-03-22T05:47:00.965Z,4.77
2023-03-22T05:47:32.977Z,5.14
2023-03-22T05:48:05.829Z,5.14
2023-03-22T05:48:34.693Z,5.63
2023-03-22T05:48:53.075Z,6.48
2023-03-22T05:49:25.104Z,6.48
2023-03-22T05:49:42.374Z,6.48
2023-03-22T05:50:13.983Z,6.85
2023-03-22T05:50:34.326Z,6.85
2023-03-22T05:51:00.992Z,7.34
2023-03-22T05:51:32.990Z,7.70
2023-03-22T05:52:05.120Z,7.70
2023-03-22T05:52:34.342Z,7.70
2023-03-22T05:52:53.043Z,8.56
2023-03-22T05:53:25.843Z,9.05
2023-03-22T05:53:42.158Z,9.54
2023-03-22T05:54:12.992Z,9.54
2023-03-22T05:54:34.786Z,9.91
2023-03-22T05:55:01.171Z,9.91
2023-03-22T05:55:32.932Z,10.77
2023-03-22T05:56:05.078Z,10.77
2023-03-22T05:56:34.607Z,10.39
2023-03-22T05:56:55.738Z,10.39
2023-03-22T05:57:25.037Z,11.25
2023-03-22T05:57:42.102Z,10.77
2023-03-22T05:58:13.002Z,11.25
2023-03-22T05:58:34.313Z,11.62